ADDS TAF Data INFO
IDs: Format: Raw Decoded Include METARs

Data at: 0657 UTC 18 Feb 2018

KDHN 180606Z 1806/1906 24005KT 3SM BR BKN003
  FM180900 VRB03KT 1SM BR OVC002
  FM181400 14003KT P6SM BKN015
  FM181600 16004KT P6SM BKN040
  FM190000 11003KT P6SM SCT050